Ryoho Maru No.2 — JD2964 — position and weather

sailwx.info

Track history (hours):
 
Tides and Currents Weather Stations Pressure Air Temp Water Temp Dewpoint Dewpoint Depression Visibility Wind Speed Wind Dir Waves Ship Positions

Ryoho Maru No.2

Last reported at 2017-Nov-15 17:06 UTC. Time now 2017-Nov-18 04:49 UTC.
Position N 35°36' E 139°55'.

Length 57 m; draft 4 m.

Type: Tanker. MMSI: 431001062.

Date/timePositionNaut miles runAvg speedWind from/ knotsBaromVisibWave heightAir tempDewpointWater temp
2017-Nov-15 17:06N 35°36' E 139°55'110.7
2017-Nov-15 16:58N 35°35' E 139°54'511.6
2017-Nov-15 16:30N 35°30' E 139°52'611.3
2017-Nov-15 16:00N 35°25' E 139°48'611.3
2017-Nov-15 15:31N 35°20' E 139°45'510.4
2017-Nov-15 15:00N 35°15' E 139°47'611.0
2017-Nov-15 14:30N 35°10' E 139°47'510.7
2017-Nov-15 14:00N 35°05' E 139°45'5 9.9
2017-Nov-15 13:30N 34°60' E 139°44'5 9.4
2017-Nov-15 12:56N 34°55' E 139°47'27 7.4
2017-Nov-15 09:17N 35°05' E 140°17'  
Track history (hours):
 
Tides and Currents Weather Stations Pressure Air Temp Water Temp Dewpoint Dewpoint Depression Visibility Wind Speed Wind Dir Waves Ship Positions

Ryoho Maru No.2

Last reported at 2017-Nov-15 17:06 UTC. Time now 2017-Nov-18 04:49 UTC.
Position N 35°36' E 139°55'.

Length 57 m; draft 4 m.

Type: Tanker. MMSI: 431001062.

Date/timePositionNaut miles runAvg speedWind from/ knotsBaromVisibWave heightAir tempDewpointWater temp
2017-Nov-15 17:06N 35°36' E 139°55'110.7
2017-Nov-15 16:58N 35°35' E 139°54'511.6
2017-Nov-15 16:30N 35°30' E 139°52'611.3
2017-Nov-15 16:00N 35°25' E 139°48'611.3
2017-Nov-15 15:31N 35°20' E 139°45'510.4
2017-Nov-15 15:00N 35°15' E 139°47'611.0
2017-Nov-15 14:30N 35°10' E 139°47'510.7
2017-Nov-15 14:00N 35°05' E 139°45'5 9.9
2017-Nov-15 13:30N 34°60' E 139°44'5 9.4
2017-Nov-15 12:56N 34°55' E 139°47'27 7.4
2017-Nov-15 09:17N 35°05' E 140°17'  

Dump ship's entire track history